sensor_id;sensor_type;location;lat;lon;timestamp;P1;durP1;ratioP1;P2;durP2;ratioP2
55827;SDS011;41758;51.992;5.890;2023-02-28T00:00:27;6.35;;;4.00;;
55827;SDS011;41758;51.992;5.890;2023-02-28T00:02:53;6.70;;;3.45;;
55827;SDS011;41758;51.992;5.890;2023-02-28T00:05:20;5.40;;;3.63;;
55827;SDS011;41758;51.992;5.890;2023-02-28T00:07:47;8.90;;;3.78;;
55827;SDS011;41758;51.992;5.890;2023-02-28T00:10:14;6.30;;;3.25;;
55827;SDS011;41758;51.992;5.890;2023-02-28T00:12:48;6.25;;;3.70;;
55827;SDS011;41758;51.992;5.890;2023-02-28T00:15:15;7.65;;;4.00;;
55827;SDS011;41758;51.992;5.890;2023-02-28T00:17:41;6.65;;;3.50;;
55827;SDS011;41758;51.992;5.890;2023-02-28T00:20:07;6.20;;;3.97;;
55827;SDS011;41758;51.992;5.890;2023-02-28T00:22:38;5.60;;;3.42;;
55827;SDS011;41758;51.992;5.890;2023-02-28T00:25:05;7.05;;;3.42;;
55827;SDS011;41758;51.992;5.890;2023-02-28T00:27:32;6.75;;;3.90;;
55827;SDS011;41758;51.992;5.890;2023-02-28T00:30:00;6.68;;;3.92;;
55827;SDS011;41758;51.992;5.890;2023-02-28T00:32:26;6.68;;;3.75;;
55827;SDS011;41758;51.992;5.890;2023-02-28T00:34:51;6.63;;;3.60;;
55827;SDS011;41758;51.992;5.890;2023-02-28T00:37:17;6.75;;;3.75;;
55827;SDS011;41758;51.992;5.890;2023-02-28T00:39:43;7.15;;;3.72;;
55827;SDS011;41758;51.992;5.890;2023-02-28T00:42:09;7.07;;;3.20;;
55827;SDS011;41758;51.992;5.890;2023-02-28T00:44:34;8.05;;;3.92;;
55827;SDS011;41758;51.992;5.890;2023-02-28T00:47:00;6.65;;;3.60;;
55827;SDS011;41758;51.992;5.890;2023-02-28T00:49:26;7.57;;;3.50;;
55827;SDS011;41758;51.992;5.890;2023-02-28T00:51:53;7.68;;;3.92;;
55827;SDS011;41758;51.992;5.890;2023-02-28T00:54:20;6.85;;;4.00;;
55827;SDS011;41758;51.992;5.890;2023-02-28T00:56:46;5.65;;;3.38;;
55827;SDS011;41758;51.992;5.890;2023-02-28T00:59:13;5.68;;;3.65;;
55827;SDS011;41758;51.992;5.890;2023-02-28T01:01:39;6.68;;;3.83;;
55827;SDS011;41758;51.992;5.890;2023-02-28T01:04:05;7.50;;;4.18;;
55827;SDS011;41758;51.992;5.890;2023-02-28T01:06:31;8.38;;;3.67;;
55827;SDS011;41758;51.992;5.890;2023-02-28T01:08:58;6.00;;;3.78;;
55827;SDS011;41758;51.992;5.890;2023-02-28T01:11:24;6.32;;;3.60;;
55827;SDS011;41758;51.992;5.890;2023-02-28T01:13:51;8.68;;;4.10;;
55827;SDS011;41758;51.992;5.890;2023-02-28T01:16:17;7.25;;;3.83;;
55827;SDS011;41758;51.992;5.890;2023-02-28T01:18:44;5.88;;;3.90;;
55827;SDS011;41758;51.992;5.890;2023-02-28T01:21:11;6.43;;;3.78;;
55827;SDS011;41758;51.992;5.890;2023-02-28T01:23:39;6.45;;;3.53;;
55827;SDS011;41758;51.992;5.890;2023-02-28T01:26:06;6.35;;;3.85;;
55827;SDS011;41758;51.992;5.890;2023-02-28T01:28:39;4.97;;;3.35;;
55827;SDS011;41758;51.992;5.890;2023-02-28T01:31:05;6.82;;;3.38;;
55827;SDS011;41758;51.992;5.890;2023-02-28T01:33:31;5.90;;;3.80;;
55827;SDS011;41758;51.992;5.890;2023-02-28T01:36:02;6.78;;;4.13;;
55827;SDS011;41758;51.992;5.890;2023-02-28T01:38:29;6.57;;;3.63;;
55827;SDS011;41758;51.992;5.890;2023-02-28T01:40:55;5.97;;;4.00;;
55827;SDS011;41758;51.992;5.890;2023-02-28T01:45:46;7.85;;;3.90;;
55827;SDS011;41758;51.992;5.890;2023-02-28T01:48:12;6.90;;;3.88;;
55827;SDS011;41758;51.992;5.890;2023-02-28T01:50:39;7.07;;;4.07;;
55827;SDS011;41758;51.992;5.890;2023-02-28T01:53:09;6.88;;;3.95;;
55827;SDS011;41758;51.992;5.890;2023-02-28T01:55:40;7.47;;;4.03;;
55827;SDS011;41758;51.992;5.890;2023-02-28T01:58:08;6.20;;;3.72;;
55827;SDS011;41758;51.992;5.890;2023-02-28T02:00:34;5.80;;;3.88;;
55827;SDS011;41758;51.992;5.890;2023-02-28T02:03:07;6.32;;;3.53;;
55827;SDS011;41758;51.992;5.890;2023-02-28T02:05:34;7.15;;;3.78;;
55827;SDS011;41758;51.992;5.890;2023-02-28T02:08:07;7.53;;;4.20;;
55827;SDS011;41758;51.992;5.890;2023-02-28T02:10:39;9.90;;;4.03;;
55827;SDS011;41758;51.992;5.890;2023-02-28T02:13:19;7.38;;;3.67;;
55827;SDS011;41758;51.992;5.890;2023-02-28T02:21:30;6.43;;;4.03;;
55827;SDS011;41758;51.992;5.890;2023-02-28T02:27:03;7.35;;;4.03;;
55827;SDS011;41758;51.992;5.890;2023-02-28T02:38:09;7.60;;;3.95;;
55827;SDS011;41758;51.992;5.890;2023-02-28T02:40:43;6.28;;;3.90;;
55827;SDS011;41758;51.992;5.890;2023-02-28T02:46:23;6.97;;;4.10;;
55827;SDS011;41758;51.992;5.890;2023-02-28T02:48:57;7.38;;;4.07;;
55827;SDS011;41758;51.992;5.890;2023-02-28T02:51:27;5.38;;;3.67;;
55827;SDS011;41758;51.992;5.890;2023-02-28T02:54:19;7.53;;;3.80;;
55827;SDS011;41758;51.992;5.890;2023-02-28T02:56:48;8.30;;;3.78;;
55827;SDS011;41758;51.992;5.890;2023-02-28T02:59:17;6.18;;;3.78;;
55827;SDS011;41758;51.992;5.890;2023-02-28T03:01:55;6.45;;;3.65;;
55827;SDS011;41758;51.992;5.890;2023-02-28T03:04:29;7.03;;;3.50;;
55827;SDS011;41758;51.992;5.890;2023-02-28T03:06:59;6.68;;;3.60;;
55827;SDS011;41758;51.992;5.890;2023-02-28T03:09:25;6.55;;;3.60;;
55827;SDS011;41758;51.992;5.890;2023-02-28T03:11:52;5.85;;;3.50;;
55827;SDS011;41758;51.992;5.890;2023-02-28T03:15:23;5.32;;;3.50;;
55827;SDS011;41758;51.992;5.890;2023-02-28T03:28:00;6.15;;;3.70;;
55827;SDS011;41758;51.992;5.890;2023-02-28T03:35:31;7.15;;;3.20;;
55827;SDS011;41758;51.992;5.890;2023-02-28T03:38:09;9.77;;;3.50;;
55827;SDS011;41758;51.992;5.890;2023-02-28T03:40:39;5.95;;;3.53;;
55827;SDS011;41758;51.992;5.890;2023-02-28T03:43:12;6.43;;;3.65;;
55827;SDS011;41758;51.992;5.890;2023-02-28T03:45:43;5.82;;;3.70;;
55827;SDS011;41758;51.992;5.890;2023-02-28T03:50:45;4.80;;;2.90;;
55827;SDS011;41758;51.992;5.890;2023-02-28T04:01:22;6.35;;;3.58;;
55827;SDS011;41758;51.992;5.890;2023-02-28T04:03:52;5.93;;;3.35;;
55827;SDS011;41758;51.992;5.890;2023-02-28T04:06:19;5.28;;;2.88;;
55827;SDS011;41758;51.992;5.890;2023-02-28T04:08:47;4.38;;;2.53;;
55827;SDS011;41758;51.992;5.890;2023-02-28T04:11:21;4.25;;;2.50;;
55827;SDS011;41758;51.992;5.890;2023-02-28T04:16:13;4.50;;;2.63;;
55827;SDS011;41758;51.992;5.890;2023-02-28T04:18:39;4.03;;;2.58;;
55827;SDS011;41758;51.992;5.890;2023-02-28T04:21:05;5.05;;;2.35;;
55827;SDS011;41758;51.992;5.890;2023-02-28T04:23:31;4.07;;;2.20;;
55827;SDS011;41758;51.992;5.890;2023-02-28T04:25:58;4.22;;;2.38;;
55827;SDS011;41758;51.992;5.890;2023-02-28T04:28:24;3.67;;;2.45;;
55827;SDS011;41758;51.992;5.890;2023-02-28T04:30:55;4.90;;;2.72;;
55827;SDS011;41758;51.992;5.890;2023-02-28T04:35:57;5.20;;;2.80;;
55827;SDS011;41758;51.992;5.890;2023-02-28T04:38:24;4.30;;;2.72;;
55827;SDS011;41758;51.992;5.890;2023-02-28T04:40:50;4.95;;;2.85;;
55827;SDS011;41758;51.992;5.890;2023-02-28T04:43:16;4.90;;;3.00;;
55827;SDS011;41758;51.992;5.890;2023-02-28T04:45:43;5.68;;;2.75;;
55827;SDS011;41758;51.992;5.890;2023-02-28T04:48:08;5.22;;;3.20;;
55827;SDS011;41758;51.992;5.890;2023-02-28T04:50:34;6.35;;;3.20;;
55827;SDS011;41758;51.992;5.890;2023-02-28T04:53:00;4.60;;;2.75;;
55827;SDS011;41758;51.992;5.890;2023-02-28T04:55:26;6.03;;;3.40;;
55827;SDS011;41758;51.992;5.890;2023-02-28T04:57:51;4.32;;;2.60;;
55827;SDS011;41758;51.992;5.890;2023-02-28T05:00:17;5.43;;;3.35;;
55827;SDS011;41758;51.992;5.890;2023-02-28T05:02:43;5.78;;;3.05;;
55827;SDS011;41758;51.992;5.890;2023-02-28T05:05:09;5.05;;;3.20;;
55827;SDS011;41758;51.992;5.890;2023-02-28T05:07:35;4.90;;;3.03;;
55827;SDS011;41758;51.992;5.890;2023-02-28T05:10:00;4.78;;;2.75;;
55827;SDS011;41758;51.992;5.890;2023-02-28T05:12:26;5.72;;;2.95;;
55827;SDS011;41758;51.992;5.890;2023-02-28T05:14:52;5.22;;;2.78;;
55827;SDS011;41758;51.992;5.890;2023-02-28T05:17:17;4.60;;;2.65;;
55827;SDS011;41758;51.992;5.890;2023-02-28T05:19:43;5.03;;;2.88;;
55827;SDS011;41758;51.992;5.890;2023-02-28T05:22:13;5.38;;;2.70;;
55827;SDS011;41758;51.992;5.890;2023-02-28T05:24:41;4.95;;;2.83;;
55827;SDS011;41758;51.992;5.890;2023-02-28T05:27:07;4.10;;;2.50;;
55827;SDS011;41758;51.992;5.890;2023-02-28T05:29:33;3.67;;;2.55;;
55827;SDS011;41758;51.992;5.890;2023-02-28T05:31:59;3.72;;;2.40;;
55827;SDS011;41758;51.992;5.890;2023-02-28T05:34:25;4.97;;;3.13;;
55827;SDS011;41758;51.992;5.890;2023-02-28T05:36:51;6.43;;;2.90;;
55827;SDS011;41758;51.992;5.890;2023-02-28T05:39:17;7.57;;;3.03;;
55827;SDS011;41758;51.992;5.890;2023-02-28T05:41:43;4.25;;;2.58;;
55827;SDS011;41758;51.992;5.890;2023-02-28T05:44:09;4.82;;;2.83;;
55827;SDS011;41758;51.992;5.890;2023-02-28T05:46:35;5.93;;;2.63;;
55827;SDS011;41758;51.992;5.890;2023-02-28T05:49:01;4.10;;;2.72;;
55827;SDS011;41758;51.992;5.890;2023-02-28T05:51:27;4.45;;;2.80;;
55827;SDS011;41758;51.992;5.890;2023-02-28T05:53:53;6.70;;;2.72;;
55827;SDS011;41758;51.992;5.890;2023-02-28T05:56:19;4.38;;;2.70;;
55827;SDS011;41758;51.992;5.890;2023-02-28T05:58:44;5.80;;;3.20;;
55827;SDS011;41758;51.992;5.890;2023-02-28T06:01:21;6.38;;;2.95;;
55827;SDS011;41758;51.992;5.890;2023-02-28T06:03:49;4.78;;;2.88;;
55827;SDS011;41758;51.992;5.890;2023-02-28T06:06:15;4.70;;;2.72;;
55827;SDS011;41758;51.992;5.890;2023-02-28T06:08:40;4.80;;;2.90;;
55827;SDS011;41758;51.992;5.890;2023-02-28T06:11:08;5.10;;;2.78;;
55827;SDS011;41758;51.992;5.890;2023-02-28T06:13:34;4.57;;;2.70;;
55827;SDS011;41758;51.992;5.890;2023-02-28T06:16:00;5.05;;;2.70;;
55827;SDS011;41758;51.992;5.890;2023-02-28T06:18:26;4.85;;;2.70;;
55827;SDS011;41758;51.992;5.890;2023-02-28T06:20:52;4.00;;;2.65;;
55827;SDS011;41758;51.992;5.890;2023-02-28T06:23:19;6.60;;;2.85;;
55827;SDS011;41758;51.992;5.890;2023-02-28T06:25:46;4.40;;;2.60;;
55827;SDS011;41758;51.992;5.890;2023-02-28T06:28:12;4.28;;;2.67;;
55827;SDS011;41758;51.992;5.890;2023-02-28T06:30:38;7.80;;;3.05;;
55827;SDS011;41758;51.992;5.890;2023-02-28T06:33:04;6.03;;;2.78;;
55827;SDS011;41758;51.992;5.890;2023-02-28T06:35:30;6.13;;;2.60;;
55827;SDS011;41758;51.992;5.890;2023-02-28T06:37:56;4.15;;;2.38;;
55827;SDS011;41758;51.992;5.890;2023-02-28T06:40:22;3.50;;;2.50;;
55827;SDS011;41758;51.992;5.890;2023-02-28T06:42:48;6.57;;;2.42;;
55827;SDS011;41758;51.992;5.890;2023-02-28T06:45:14;3.85;;;2.17;;
55827;SDS011;41758;51.992;5.890;2023-02-28T06:47:40;4.05;;;2.33;;
55827;SDS011;41758;51.992;5.890;2023-02-28T06:50:08;3.58;;;2.13;;
55827;SDS011;41758;51.992;5.890;2023-02-28T06:52:38;4.13;;;2.53;;
55827;SDS011;41758;51.992;5.890;2023-02-28T06:55:05;3.47;;;2.40;;
55827;SDS011;41758;51.992;5.890;2023-02-28T06:57:35;4.18;;;2.50;;
55827;SDS011;41758;51.992;5.890;2023-02-28T07:00:03;3.92;;;2.20;;
55827;SDS011;41758;51.992;5.890;2023-02-28T07:02:32;3.40;;;2.17;;
55827;SDS011;41758;51.992;5.890;2023-02-28T07:04:59;3.92;;;2.28;;
55827;SDS011;41758;51.992;5.890;2023-02-28T07:07:25;3.35;;;2.10;;
55827;SDS011;41758;51.992;5.890;2023-02-28T07:09:50;5.35;;;2.70;;
55827;SDS011;41758;51.992;5.890;2023-02-28T07:12:16;4.90;;;2.58;;
55827;SDS011;41758;51.992;5.890;2023-02-28T07:14:42;5.30;;;2.25;;
55827;SDS011;41758;51.992;5.890;2023-02-28T07:17:09;5.13;;;2.60;;
55827;SDS011;41758;51.992;5.890;2023-02-28T07:19:37;3.80;;;2.60;;
55827;SDS011;41758;51.992;5.890;2023-02-28T07:22:04;5.88;;;2.50;;
55827;SDS011;41758;51.992;5.890;2023-02-28T07:24:30;4.03;;;2.53;;
55827;SDS011;41758;51.992;5.890;2023-02-28T07:26:56;4.43;;;2.58;;
55827;SDS011;41758;51.992;5.890;2023-02-28T07:29:22;5.43;;;2.80;;
55827;SDS011;41758;51.992;5.890;2023-02-28T07:31:48;5.10;;;2.80;;
55827;SDS011;41758;51.992;5.890;2023-02-28T07:34:15;8.50;;;2.80;;
55827;SDS011;41758;51.992;5.890;2023-02-28T07:36:41;4.60;;;2.97;;
55827;SDS011;41758;51.992;5.890;2023-02-28T07:39:07;4.82;;;2.47;;
55827;SDS011;41758;51.992;5.890;2023-02-28T07:41:34;6.40;;;2.97;;
55827;SDS011;41758;51.992;5.890;2023-02-28T07:44:04;8.32;;;3.53;;
55827;SDS011;41758;51.992;5.890;2023-02-28T07:46:30;5.15;;;3.10;;
55827;SDS011;41758;51.992;5.890;2023-02-28T07:49:00;5.38;;;3.10;;
55827;SDS011;41758;51.992;5.890;2023-02-28T07:51:28;4.47;;;2.97;;
55827;SDS011;41758;51.992;5.890;2023-02-28T07:53:54;7.47;;;2.90;;
55827;SDS011;41758;51.992;5.890;2023-02-28T07:56:21;6.43;;;3.10;;
55827;SDS011;41758;51.992;5.890;2023-02-28T07:58:46;4.78;;;3.17;;
55827;SDS011;41758;51.992;5.890;2023-02-28T08:01:12;5.70;;;2.88;;
55827;SDS011;41758;51.992;5.890;2023-02-28T08:03:39;6.68;;;2.92;;
55827;SDS011;41758;51.992;5.890;2023-02-28T08:06:05;5.75;;;3.35;;
55827;SDS011;41758;51.992;5.890;2023-02-28T08:08:33;5.07;;;3.00;;
55827;SDS011;41758;51.992;5.890;2023-02-28T08:10:59;5.90;;;2.70;;
55827;SDS011;41758;51.992;5.890;2023-02-28T08:13:28;5.88;;;3.08;;
55827;SDS011;41758;51.992;5.890;2023-02-28T08:15:55;4.55;;;2.60;;
55827;SDS011;41758;51.992;5.890;2023-02-28T08:18:22;5.53;;;2.97;;
55827;SDS011;41758;51.992;5.890;2023-02-28T08:20:48;5.10;;;3.17;;
55827;SDS011;41758;51.992;5.890;2023-02-28T08:23:14;3.90;;;2.60;;
55827;SDS011;41758;51.992;5.890;2023-02-28T08:25:40;6.40;;;2.90;;
55827;SDS011;41758;51.992;5.890;2023-02-28T08:28:06;4.85;;;2.97;;
55827;SDS011;41758;51.992;5.890;2023-02-28T08:30:32;5.00;;;2.70;;
55827;SDS011;41758;51.992;5.890;2023-02-28T08:32:57;7.07;;;2.65;;
55827;SDS011;41758;51.992;5.890;2023-02-28T08:35:23;5.13;;;2.72;;
55827;SDS011;41758;51.992;5.890;2023-02-28T08:37:50;4.35;;;2.60;;
55827;SDS011;41758;51.992;5.890;2023-02-28T08:40:16;5.82;;;3.20;;
55827;SDS011;41758;51.992;5.890;2023-02-28T08:42:49;5.22;;;2.55;;
55827;SDS011;41758;51.992;5.890;2023-02-28T08:45:15;5.75;;;2.58;;
55827;SDS011;41758;51.992;5.890;2023-02-28T08:47:41;4.45;;;2.58;;
55827;SDS011;41758;51.992;5.890;2023-02-28T08:50:07;3.95;;;2.60;;
55827;SDS011;41758;51.992;5.890;2023-02-28T08:52:33;6.68;;;2.80;;
55827;SDS011;41758;51.992;5.890;2023-02-28T08:54:59;5.57;;;2.92;;
55827;SDS011;41758;51.992;5.890;2023-02-28T08:57:25;3.78;;;2.58;;
55827;SDS011;41758;51.992;5.890;2023-02-28T08:59:52;5.10;;;2.45;;
55827;SDS011;41758;51.992;5.890;2023-02-28T09:02:18;4.15;;;2.75;;
55827;SDS011;41758;51.992;5.890;2023-02-28T09:04:44;3.80;;;2.83;;
55827;SDS011;41758;51.992;5.890;2023-02-28T09:07:11;3.92;;;2.17;;
55827;SDS011;41758;51.992;5.890;2023-02-28T09:09:37;4.32;;;2.63;;
55827;SDS011;41758;51.992;5.890;2023-02-28T09:12:03;3.65;;;2.33;;
55827;SDS011;41758;51.992;5.890;2023-02-28T09:14:30;3.85;;;2.35;;
55827;SDS011;41758;51.992;5.890;2023-02-28T09:16:56;3.47;;;2.15;;
55827;SDS011;41758;51.992;5.890;2023-02-28T09:19:21;3.97;;;2.47;;
55827;SDS011;41758;51.992;5.890;2023-02-28T09:21:47;4.35;;;2.50;;
55827;SDS011;41758;51.992;5.890;2023-02-28T09:24:13;4.32;;;2.50;;
55827;SDS011;41758;51.992;5.890;2023-02-28T09:26:40;4.30;;;2.55;;
55827;SDS011;41758;51.992;5.890;2023-02-28T09:29:06;3.38;;;2.10;;
55827;SDS011;41758;51.992;5.890;2023-02-28T09:31:32;3.10;;;2.10;;
55827;SDS011;41758;51.992;5.890;2023-02-28T09:33:58;4.78;;;2.22;;
55827;SDS011;41758;51.992;5.890;2023-02-28T09:36:25;3.65;;;2.22;;
55827;SDS011;41758;51.992;5.890;2023-02-28T09:38:53;3.72;;;2.20;;
55827;SDS011;41758;51.992;5.890;2023-02-28T09:41:21;3.40;;;2.30;;
55827;SDS011;41758;51.992;5.890;2023-02-28T09:43:52;3.88;;;2.30;;
55827;SDS011;41758;51.992;5.890;2023-02-28T09:46:28;5.10;;;2.38;;
55827;SDS011;41758;51.992;5.890;2023-02-28T09:49:08;3.13;;;2.00;;
55827;SDS011;41758;51.992;5.890;2023-02-28T09:51:57;3.33;;;2.17;;
55827;SDS011;41758;51.992;5.890;2023-02-28T09:54:31;3.78;;;2.30;;
55827;SDS011;41758;51.992;5.890;2023-02-28T09:59:30;3.65;;;2.22;;
55827;SDS011;41758;51.992;5.890;2023-02-28T10:04:57;4.38;;;2.20;;
55827;SDS011;41758;51.992;5.890;2023-02-28T10:07:45;3.35;;;2.10;;
55827;SDS011;41758;51.992;5.890;2023-02-28T10:13:06;3.15;;;2.08;;
55827;SDS011;41758;51.992;5.890;2023-02-28T10:18:20;3.35;;;1.95;;
55827;SDS011;41758;51.992;5.890;2023-02-28T10:20:49;2.90;;;2.20;;
55827;SDS011;41758;51.992;5.890;2023-02-28T10:25:57;2.95;;;1.90;;
55827;SDS011;41758;51.992;5.890;2023-02-28T10:28:35;3.88;;;1.98;;
55827;SDS011;41758;51.992;5.890;2023-02-28T10:32:01;8.98;;;2.22;;
55827;SDS011;41758;51.992;5.890;2023-02-28T10:34:51;3.03;;;1.98;;
55827;SDS011;41758;51.992;5.890;2023-02-28T10:37:44;5.35;;;2.42;;
55827;SDS011;41758;51.992;5.890;2023-02-28T10:40:36;9.88;;;3.33;;
55827;SDS011;41758;51.992;5.890;2023-02-28T10:43:25;6.35;;;2.40;;
55827;SDS011;41758;51.992;5.890;2023-02-28T10:45:55;2.80;;;1.92;;
55827;SDS011;41758;51.992;5.890;2023-02-28T10:48:45;2.72;;;1.90;;
55827;SDS011;41758;51.992;5.890;2023-02-28T10:51:43;4.93;;;2.13;;
55827;SDS011;41758;51.992;5.890;2023-02-28T10:59:52;3.60;;;2.03;;
55827;SDS011;41758;51.992;5.890;2023-02-28T11:02:36;3.42;;;1.70;;
55827;SDS011;41758;51.992;5.890;2023-02-28T11:05:22;2.88;;;1.83;;
55827;SDS011;41758;51.992;5.890;2023-02-28T11:10:36;2.50;;;1.70;;
55827;SDS011;41758;51.992;5.890;2023-02-28T11:13:02;4.43;;;2.08;;
55827;SDS011;41758;51.992;5.890;2023-02-28T11:15:32;4.55;;;2.22;;
55827;SDS011;41758;51.992;5.890;2023-02-28T11:18:42;3.92;;;2.10;;
55827;SDS011;41758;51.992;5.890;2023-02-28T11:20:56;8.23;;;2.53;;
55827;SDS011;41758;51.992;5.890;2023-02-28T11:23:25;3.40;;;1.98;;
55827;SDS011;41758;51.992;5.890;2023-02-28T11:26:00;2.60;;;1.80;;
55827;SDS011;41758;51.992;5.890;2023-02-28T11:28:37;5.75;;;1.95;;
55827;SDS011;41758;51.992;5.890;2023-02-28T11:33:41;3.22;;;1.98;;
55827;SDS011;41758;51.992;5.890;2023-02-28T11:36:31;3.92;;;1.98;;
55827;SDS011;41758;51.992;5.890;2023-02-28T11:38:59;3.75;;;2.00;;
55827;SDS011;41758;51.992;5.890;2023-02-28T11:55:32;3.25;;;1.90;;
55827;SDS011;41758;51.992;5.890;2023-02-28T12:04:10;3.75;;;2.00;;
55827;SDS011;41758;51.992;5.890;2023-02-28T12:26:45;4.10;;;1.77;;
55827;SDS011;41758;51.992;5.890;2023-02-28T12:29:14;2.88;;;1.77;;
55827;SDS011;41758;51.992;5.890;2023-02-28T12:35:06;2.83;;;1.70;;
55827;SDS011;41758;51.992;5.890;2023-02-28T12:37:54;3.92;;;1.88;;
55827;SDS011;41758;51.992;5.890;2023-02-28T12:40:27;2.85;;;1.80;;
55827;SDS011;41758;51.992;5.890;2023-02-28T12:43:05;3.95;;;1.70;;
55827;SDS011;41758;51.992;5.890;2023-02-28T12:45:44;3.13;;;1.70;;
55827;SDS011;41758;51.992;5.890;2023-02-28T12:48:21;3.35;;;1.83;;
55827;SDS011;41758;51.992;5.890;2023-02-28T12:50:52;5.18;;;2.10;;
55827;SDS011;41758;51.992;5.890;2023-02-28T12:58:58;3.65;;;1.33;;
55827;SDS011;41758;51.992;5.890;2023-02-28T13:09:54;4.75;;;1.50;;
55827;SDS011;41758;51.992;5.890;2023-02-28T13:12:22;2.10;;;1.38;;
55827;SDS011;41758;51.992;5.890;2023-02-28T13:14:48;1.60;;;1.17;;
55827;SDS011;41758;51.992;5.890;2023-02-28T13:17:18;5.30;;;1.83;;
55827;SDS011;41758;51.992;5.890;2023-02-28T13:25:04;4.32;;;1.60;;
55827;SDS011;41758;51.992;5.890;2023-02-28T13:27:49;3.20;;;1.50;;
55827;SDS011;41758;51.992;5.890;2023-02-28T13:38:35;2.28;;;1.38;;
55827;SDS011;41758;51.992;5.890;2023-02-28T13:44:07;5.32;;;1.83;;
55827;SDS011;41758;51.992;5.890;2023-02-28T14:00:17;6.50;;;2.63;;
55827;SDS011;41758;51.992;5.890;2023-02-28T14:05:30;3.83;;;2.05;;
55827;SDS011;41758;51.992;5.890;2023-02-28T14:07:59;4.57;;;2.22;;
55827;SDS011;41758;51.992;5.890;2023-02-28T14:10:41;8.02;;;3.08;;
55827;SDS011;41758;51.992;5.890;2023-02-28T14:14:00;8.95;;;3.30;;
55827;SDS011;41758;51.992;5.890;2023-02-28T14:16:02;7.85;;;3.00;;
55827;SDS011;41758;51.992;5.890;2023-02-28T14:18:34;13.50;;;4.10;;
55827;SDS011;41758;51.992;5.890;2023-02-28T14:30:04;3.80;;;2.00;;
55827;SDS011;41758;51.992;5.890;2023-02-28T14:38:18;4.10;;;2.00;;
55827;SDS011;41758;51.992;5.890;2023-02-28T14:40:49;3.72;;;2.33;;
55827;SDS011;41758;51.992;5.890;2023-02-28T14:43:22;4.25;;;1.83;;
55827;SDS011;41758;51.992;5.890;2023-02-28T14:45:50;2.63;;;1.88;;
55827;SDS011;41758;51.992;5.890;2023-02-28T14:48:19;3.08;;;1.85;;
55827;SDS011;41758;51.992;5.890;2023-02-28T14:50:50;5.35;;;2.20;;
55827;SDS011;41758;51.992;5.890;2023-02-28T14:53:18;4.22;;;2.33;;
55827;SDS011;41758;51.992;5.890;2023-02-28T14:55:47;3.55;;;2.17;;
55827;SDS011;41758;51.992;5.890;2023-02-28T14:58:27;3.15;;;2.10;;
55827;SDS011;41758;51.992;5.890;2023-02-28T15:00:57;3.47;;;2.00;;
55827;SDS011;41758;51.992;5.890;2023-02-28T15:06:00;4.40;;;2.03;;
55827;SDS011;41758;51.992;5.890;2023-02-28T15:08:31;2.78;;;2.05;;
55827;SDS011;41758;51.992;5.890;2023-02-28T15:11:04;3.10;;;2.08;;
55827;SDS011;41758;51.992;5.890;2023-02-28T15:16:06;3.15;;;1.80;;
55827;SDS011;41758;51.992;5.890;2023-02-28T15:21:31;4.63;;;2.10;;
55827;SDS011;41758;51.992;5.890;2023-02-28T15:24:10;4.10;;;2.17;;
55827;SDS011;41758;51.992;5.890;2023-02-28T15:26:50;4.05;;;2.47;;
55827;SDS011;41758;51.992;5.890;2023-02-28T15:29:21;3.53;;;2.00;;
55827;SDS011;41758;51.992;5.890;2023-02-28T15:31:50;3.22;;;1.70;;
55827;SDS011;41758;51.992;5.890;2023-02-28T15:34:21;3.60;;;1.90;;
55827;SDS011;41758;51.992;5.890;2023-02-28T15:36:52;2.75;;;1.92;;
55827;SDS011;41758;51.992;5.890;2023-02-28T15:39:22;3.58;;;2.20;;
55827;SDS011;41758;51.992;5.890;2023-02-28T15:41:52;4.35;;;2.25;;
55827;SDS011;41758;51.992;5.890;2023-02-28T15:44:34;5.28;;;2.05;;
55827;SDS011;41758;51.992;5.890;2023-02-28T15:50:31;5.18;;;1.80;;
55827;SDS011;41758;51.992;5.890;2023-02-28T15:52:34;3.88;;;2.33;;
55827;SDS011;41758;51.992;5.890;2023-02-28T15:55:21;6.82;;;2.13;;
55827;SDS011;41758;51.992;5.890;2023-02-28T15:57:52;2.72;;;1.98;;
55827;SDS011;41758;51.992;5.890;2023-02-28T16:00:24;3.78;;;2.40;;
55827;SDS011;41758;51.992;5.890;2023-02-28T16:02:52;4.93;;;2.50;;
55827;SDS011;41758;51.992;5.890;2023-02-28T16:05:30;3.67;;;2.35;;
55827;SDS011;41758;51.992;5.890;2023-02-28T16:08:25;2.88;;;1.88;;
55827;SDS011;41758;51.992;5.890;2023-02-28T16:11:10;3.78;;;2.05;;
55827;SDS011;41758;51.992;5.890;2023-02-28T16:13:39;3.85;;;2.22;;
55827;SDS011;41758;51.992;5.890;2023-02-28T16:16:12;3.97;;;2.17;;
55827;SDS011;41758;51.992;5.890;2023-02-28T16:18:44;3.03;;;2.03;;
55827;SDS011;41758;51.992;5.890;2023-02-28T16:21:10;3.47;;;2.05;;
55827;SDS011;41758;51.992;5.890;2023-02-28T16:23:36;4.07;;;2.13;;
55827;SDS011;41758;51.992;5.890;2023-02-28T16:26:02;7.00;;;2.20;;
55827;SDS011;41758;51.992;5.890;2023-02-28T16:28:33;5.10;;;2.63;;
55827;SDS011;41758;51.992;5.890;2023-02-28T16:31:01;4.25;;;2.53;;
55827;SDS011;41758;51.992;5.890;2023-02-28T16:33:29;4.05;;;2.30;;
55827;SDS011;41758;51.992;5.890;2023-02-28T16:35:56;3.85;;;2.30;;
55827;SDS011;41758;51.992;5.890;2023-02-28T16:38:25;3.47;;;2.08;;
55827;SDS011;41758;51.992;5.890;2023-02-28T16:40:51;3.70;;;2.40;;
55827;SDS011;41758;51.992;5.890;2023-02-28T16:43:22;4.15;;;2.63;;
55827;SDS011;41758;51.992;5.890;2023-02-28T16:45:56;4.63;;;2.20;;
55827;SDS011;41758;51.992;5.890;2023-02-28T16:48:25;4.87;;;2.30;;
55827;SDS011;41758;51.992;5.890;2023-02-28T16:50:51;4.10;;;1.95;;
55827;SDS011;41758;51.992;5.890;2023-02-28T16:53:17;3.42;;;2.08;;
55827;SDS011;41758;51.992;5.890;2023-02-28T16:55:43;3.83;;;2.10;;
55827;SDS011;41758;51.992;5.890;2023-02-28T16:58:11;4.55;;;2.15;;
55827;SDS011;41758;51.992;5.890;2023-02-28T17:00:40;3.30;;;2.10;;
55827;SDS011;41758;51.992;5.890;2023-02-28T17:03:10;3.72;;;2.20;;
55827;SDS011;41758;51.992;5.890;2023-02-28T17:05:46;4.40;;;2.53;;
55827;SDS011;41758;51.992;5.890;2023-02-28T17:08:14;4.15;;;2.30;;
55827;SDS011;41758;51.992;5.890;2023-02-28T17:10:39;3.97;;;2.28;;
55827;SDS011;41758;51.992;5.890;2023-02-28T17:13:05;4.28;;;2.20;;
55827;SDS011;41758;51.992;5.890;2023-02-28T17:15:33;4.28;;;2.50;;
55827;SDS011;41758;51.992;5.890;2023-02-28T17:17:58;4.53;;;2.40;;
55827;SDS011;41758;51.992;5.890;2023-02-28T17:20:24;4.68;;;2.50;;
55827;SDS011;41758;51.992;5.890;2023-02-28T17:22:54;6.00;;;2.40;;
55827;SDS011;41758;51.992;5.890;2023-02-28T17:25:20;4.43;;;2.60;;
55827;SDS011;41758;51.992;5.890;2023-02-28T17:27:47;5.03;;;2.60;;
55827;SDS011;41758;51.992;5.890;2023-02-28T17:30:22;7.03;;;3.22;;
55827;SDS011;41758;51.992;5.890;2023-02-28T17:32:50;5.57;;;2.70;;
55827;SDS011;41758;51.992;5.890;2023-02-28T17:35:15;4.95;;;2.63;;
55827;SDS011;41758;51.992;5.890;2023-02-28T17:37:41;4.57;;;2.88;;
55827;SDS011;41758;51.992;5.890;2023-02-28T17:40:12;7.43;;;3.72;;
55827;SDS011;41758;51.992;5.890;2023-02-28T17:42:43;5.50;;;2.70;;
55827;SDS011;41758;51.992;5.890;2023-02-28T17:45:09;4.18;;;2.40;;
55827;SDS011;41758;51.992;5.890;2023-02-28T17:47:36;3.80;;;2.08;;
55827;SDS011;41758;51.992;5.890;2023-02-28T17:50:02;4.13;;;2.42;;
55827;SDS011;41758;51.992;5.890;2023-02-28T17:52:28;4.00;;;2.55;;
55827;SDS011;41758;51.992;5.890;2023-02-28T17:54:54;7.95;;;3.40;;
55827;SDS011;41758;51.992;5.890;2023-02-28T17:57:20;5.65;;;3.17;;
55827;SDS011;41758;51.992;5.890;2023-02-28T17:59:46;6.85;;;4.25;;
55827;SDS011;41758;51.992;5.890;2023-02-28T18:02:12;5.80;;;3.25;;
55827;SDS011;41758;51.992;5.890;2023-02-28T18:04:38;6.50;;;3.63;;
55827;SDS011;41758;51.992;5.890;2023-02-28T18:07:05;6.25;;;3.22;;
55827;SDS011;41758;51.992;5.890;2023-02-28T18:09:34;4.65;;;2.70;;
55827;SDS011;41758;51.992;5.890;2023-02-28T18:11:59;4.30;;;2.88;;
55827;SDS011;41758;51.992;5.890;2023-02-28T18:14:25;4.65;;;2.88;;
55827;SDS011;41758;51.992;5.890;2023-02-28T18:16:52;5.55;;;3.08;;